sensor_id;sensor_type;location;lat;lon;timestamp;pressure;altitude;pressure_sealevel;temperature;humidity
2685;BME280;1352;48.446;9.156;2023-11-21T00:02:05;94697.94;;;10.09;100.00
2685;BME280;1352;48.446;9.156;2023-11-21T00:04:32;94697.94;;;10.09;100.00
2685;BME280;1352;48.446;9.156;2023-11-21T00:06:59;94701.78;;;10.05;100.00
2685;BME280;1352;48.446;9.156;2023-11-21T00:09:26;94703.28;;;10.07;100.00
2685;BME280;1352;48.446;9.156;2023-11-21T00:11:53;94702.97;;;10.11;100.00
2685;BME280;1352;48.446;9.156;2023-11-21T00:14:20;94704.63;;;10.12;100.00
2685;BME280;1352;48.446;9.156;2023-11-21T00:16:46;94707.75;;;10.15;100.00
2685;BME280;1352;48.446;9.156;2023-11-21T00:19:13;94698.69;;;10.19;99.51
2685;BME280;1352;48.446;9.156;2023-11-21T00:21:40;94693.09;;;10.14;100.00
2685;BME280;1352;48.446;9.156;2023-11-21T00:24:09;94699.63;;;10.28;100.00
2685;BME280;1352;48.446;9.156;2023-11-21T00:26:39;94693.31;;;10.38;98.09
2685;BME280;1352;48.446;9.156;2023-11-21T00:29:06;94698.72;;;10.37;95.75
2685;BME280;1352;48.446;9.156;2023-11-21T00:31:33;94696.94;;;10.37;96.61
2685;BME280;1352;48.446;9.156;2023-11-21T00:34:02;94697.44;;;10.41;96.23
2685;BME280;1352;48.446;9.156;2023-11-21T00:36:28;94699.38;;;10.39;95.75
2685;BME280;1352;48.446;9.156;2023-11-21T00:38:55;94696.09;;;10.37;95.75
2685;BME280;1352;48.446;9.156;2023-11-21T00:41:22;94695.78;;;10.40;96.20
2685;BME280;1352;48.446;9.156;2023-11-21T00:43:50;94698.41;;;10.40;94.94
2685;BME280;1352;48.446;9.156;2023-11-21T00:46:17;94692.94;;;10.16;95.47
2685;BME280;1352;48.446;9.156;2023-11-21T00:48:44;94689.44;;;10.07;97.04
2685;BME280;1352;48.446;9.156;2023-11-21T00:51:10;94698.66;;;10.01;97.68
2685;BME280;1352;48.446;9.156;2023-11-21T00:53:37;94685.19;;;10.06;97.04
2685;BME280;1352;48.446;9.156;2023-11-21T00:56:05;94695.16;;;9.93;98.12
2685;BME280;1352;48.446;9.156;2023-11-21T00:58:33;94695.41;;;9.99;96.73
2685;BME280;1352;48.446;9.156;2023-11-21T01:01:02;94698.97;;;9.98;96.84
2685;BME280;1352;48.446;9.156;2023-11-21T01:03:29;94699.72;;;10.08;95.33
2685;BME280;1352;48.446;9.156;2023-11-21T01:05:55;94699.78;;;9.99;95.95
2685;BME280;1352;48.446;9.156;2023-11-21T01:08:23;94693.47;;;10.19;94.99
2685;BME280;1352;48.446;9.156;2023-11-21T01:10:50;94696.25;;;10.18;95.52
2685;BME280;1352;48.446;9.156;2023-11-21T01:13:16;94691.97;;;10.17;95.52
2685;BME280;1352;48.446;9.156;2023-11-21T01:15:43;94690.38;;;10.33;94.92
2685;BME280;1352;48.446;9.156;2023-11-21T01:18:12;94693.03;;;10.24;94.49
2685;BME280;1352;48.446;9.156;2023-11-21T01:20:38;94690.50;;;10.32;94.86
2685;BME280;1352;48.446;9.156;2023-11-21T01:23:05;94694.47;;;10.18;94.73
2685;BME280;1352;48.446;9.156;2023-11-21T01:25:32;94694.75;;;10.33;94.05
2685;BME280;1352;48.446;9.156;2023-11-21T01:27:58;94696.94;;;10.37;92.78
2685;BME280;1352;48.446;9.156;2023-11-21T01:30:25;94695.22;;;10.28;93.22
2685;BME280;1352;48.446;9.156;2023-11-21T01:32:52;94696.94;;;10.37;91.77
2685;BME280;1352;48.446;9.156;2023-11-21T01:35:20;94692.69;;;10.36;91.81
2685;BME280;1352;48.446;9.156;2023-11-21T01:37:47;94689.84;;;10.30;91.98
2685;BME280;1352;48.446;9.156;2023-11-21T01:40:14;94691.25;;;10.42;91.42
2685;BME280;1352;48.446;9.156;2023-11-21T01:42:41;94680.06;;;10.50;91.45
2685;BME280;1352;48.446;9.156;2023-11-21T01:45:09;94682.59;;;10.41;91.60
2685;BME280;1352;48.446;9.156;2023-11-21T01:47:37;94684.78;;;10.28;92.60
2685;BME280;1352;48.446;9.156;2023-11-21T01:50:06;94684.03;;;10.18;92.58
2685;BME280;1352;48.446;9.156;2023-11-21T01:52:34;94680.44;;;10.19;92.68
2685;BME280;1352;48.446;9.156;2023-11-21T01:55:02;94687.97;;;10.22;93.12
2685;BME280;1352;48.446;9.156;2023-11-21T01:57:29;94671.13;;;10.17;92.79
2685;BME280;1352;48.446;9.156;2023-11-21T01:59:56;94671.38;;;10.23;93.73
2685;BME280;1352;48.446;9.156;2023-11-21T02:02:25;94670.75;;;10.12;93.57
2685;BME280;1352;48.446;9.156;2023-11-21T02:04:51;94676.72;;;10.22;94.01
2685;BME280;1352;48.446;9.156;2023-11-21T02:07:18;94671.56;;;10.12;93.84
2685;BME280;1352;48.446;9.156;2023-11-21T02:09:46;94674.38;;;10.01;94.81
2685;BME280;1352;48.446;9.156;2023-11-21T02:12:13;94679.38;;;10.12;92.89
2685;BME280;1352;48.446;9.156;2023-11-21T02:14:40;94671.41;;;10.14;92.43
2685;BME280;1352;48.446;9.156;2023-11-21T02:17:07;94678.28;;;10.15;92.58
2685;BME280;1352;48.446;9.156;2023-11-21T02:19:34;94674.78;;;10.06;91.92
2685;BME280;1352;48.446;9.156;2023-11-21T02:22:01;94674.31;;;9.93;91.78
2685;BME280;1352;48.446;9.156;2023-11-21T02:24:31;94665.31;;;10.05;91.95
2685;BME280;1352;48.446;9.156;2023-11-21T02:26:58;94663.31;;;9.99;92.92
2685;BME280;1352;48.446;9.156;2023-11-21T02:29:25;94667.47;;;10.10;91.77
2685;BME280;1352;48.446;9.156;2023-11-21T02:31:53;94666.44;;;10.20;91.61
2685;BME280;1352;48.446;9.156;2023-11-21T02:34:20;94676.72;;;10.22;91.94
2685;BME280;1352;48.446;9.156;2023-11-21T02:36:47;94673.16;;;10.23;92.17
2685;BME280;1352;48.446;9.156;2023-11-21T02:39:14;94668.47;;;10.26;93.10
2685;BME280;1352;48.446;9.156;2023-11-21T02:41:43;94657.28;;;10.16;93.31
2685;BME280;1352;48.446;9.156;2023-11-21T02:44:10;94665.81;;;10.18;93.11
2685;BME280;1352;48.446;9.156;2023-11-21T02:46:36;94665.22;;;10.15;92.43
2685;BME280;1352;48.446;9.156;2023-11-21T02:49:04;94660.63;;;10.08;92.25
2685;BME280;1352;48.446;9.156;2023-11-21T02:51:32;94665.47;;;10.21;91.57
2685;BME280;1352;48.446;9.156;2023-11-21T02:53:59;94664.13;;;10.17;92.48
2685;BME280;1352;48.446;9.156;2023-11-21T02:56:27;94666.69;;;10.27;91.75
2685;BME280;1352;48.446;9.156;2023-11-21T02:58:56;94655.34;;;10.36;92.11
2685;BME280;1352;48.446;9.156;2023-11-21T03:01:23;94656.25;;;10.27;91.48
2685;BME280;1352;48.446;9.156;2023-11-21T03:03:50;94659.44;;;10.21;92.62
2685;BME280;1352;48.446;9.156;2023-11-21T03:06:17;94666.84;;;10.25;92.67
2685;BME280;1352;48.446;9.156;2023-11-21T03:08:44;94667.03;;;10.14;94.47
2685;BME280;1352;48.446;9.156;2023-11-21T03:11:11;94670.59;;;10.13;94.39
2685;BME280;1352;48.446;9.156;2023-11-21T03:13:38;94662.38;;;10.18;94.35
2685;BME280;1352;48.446;9.156;2023-11-21T03:16:07;94669.56;;;10.41;92.81
2685;BME280;1352;48.446;9.156;2023-11-21T03:18:33;94673.69;;;10.26;93.61
2685;BME280;1352;48.446;9.156;2023-11-21T03:21:01;94669.78;;;10.30;93.04
2685;BME280;1352;48.446;9.156;2023-11-21T03:23:28;94675.69;;;10.32;92.71
2685;BME280;1352;48.446;9.156;2023-11-21T03:25:54;94675.47;;;10.43;92.93
2685;BME280;1352;48.446;9.156;2023-11-21T03:28:21;94676.72;;;10.39;91.71
2685;BME280;1352;48.446;9.156;2023-11-21T03:30:48;94671.56;;;10.48;91.22
2685;BME280;1352;48.446;9.156;2023-11-21T03:33:17;94668.25;;;10.37;91.93
2685;BME280;1352;48.446;9.156;2023-11-21T03:35:43;94671.56;;;10.48;91.32
2685;BME280;1352;48.446;9.156;2023-11-21T03:38:11;94677.38;;;10.41;91.28
2685;BME280;1352;48.446;9.156;2023-11-21T03:40:38;94670.16;;;10.53;91.11
2685;BME280;1352;48.446;9.156;2023-11-21T03:43:06;94673.72;;;10.52;90.73
2685;BME280;1352;48.446;9.156;2023-11-21T03:45:32;94667.56;;;10.53;90.55
2685;BME280;1352;48.446;9.156;2023-11-21T03:47:59;94657.50;;;10.40;91.77
2685;BME280;1352;48.446;9.156;2023-11-21T03:50:28;94667.78;;;10.42;92.28
2685;BME280;1352;48.446;9.156;2023-11-21T03:52:55;94666.88;;;10.16;92.13
2685;BME280;1352;48.446;9.156;2023-11-21T03:55:22;94667.47;;;10.10;92.74
2685;BME280;1352;48.446;9.156;2023-11-21T03:57:50;94667.25;;;10.21;93.12
2685;BME280;1352;48.446;9.156;2023-11-21T04:00:17;94665.09;;;9.98;92.77
2685;BME280;1352;48.446;9.156;2023-11-21T04:02:45;94660.31;;;10.12;92.13
2685;BME280;1352;48.446;9.156;2023-11-21T04:05:11;94676.03;;;10.02;91.86
2685;BME280;1352;48.446;9.156;2023-11-21T04:07:40;94672.16;;;10.06;92.80
2685;BME280;1352;48.446;9.156;2023-11-21T04:10:07;94664.88;;;10.10;92.68
2685;BME280;1352;48.446;9.156;2023-11-21T04:12:34;94682.66;;;10.14;93.35
2685;BME280;1352;48.446;9.156;2023-11-21T04:15:01;94676.34;;;10.17;93.52
2685;BME280;1352;48.446;9.156;2023-11-21T04:17:28;94683.38;;;10.34;92.04
2685;BME280;1352;48.446;9.156;2023-11-21T04:19:54;94671.38;;;10.23;92.30
2685;BME280;1352;48.446;9.156;2023-11-21T04:22:21;94676.78;;;10.12;94.18
2685;BME280;1352;48.446;9.156;2023-11-21T04:24:49;94679.84;;;10.07;94.52
2685;BME280;1352;48.446;9.156;2023-11-21T04:27:16;94670.19;;;10.18;94.43
2685;BME280;1352;48.446;9.156;2023-11-21T04:29:43;94684.38;;;10.05;94.54
2685;BME280;1352;48.446;9.156;2023-11-21T04:32:10;94676.22;;;10.18;94.65
2685;BME280;1352;48.446;9.156;2023-11-21T04:34:38;94686.19;;;10.23;94.44
2685;BME280;1352;48.446;9.156;2023-11-21T04:37:05;94694.91;;;10.31;93.22
2685;BME280;1352;48.446;9.156;2023-11-21T04:39:31;94682.75;;;10.22;93.23
2685;BME280;1352;48.446;9.156;2023-11-21T04:41:59;94688.19;;;10.29;93.31
2685;BME280;1352;48.446;9.156;2023-11-21T04:44:26;94686.41;;;10.29;93.39
2685;BME280;1352;48.446;9.156;2023-11-21T04:46:53;94693.50;;;10.37;93.11
2685;BME280;1352;48.446;9.156;2023-11-21T04:49:20;94687.41;;;10.28;93.65
2685;BME280;1352;48.446;9.156;2023-11-21T04:51:47;94691.19;;;10.34;93.92
2685;BME280;1352;48.446;9.156;2023-11-21T04:54:14;94692.69;;;10.36;94.07
2685;BME280;1352;48.446;9.156;2023-11-21T04:56:41;94692.91;;;10.43;93.33
2685;BME280;1352;48.446;9.156;2023-11-21T04:59:09;94700.09;;;10.49;92.32
2685;BME280;1352;48.446;9.156;2023-11-21T05:01:36;94703.03;;;10.46;91.38
2685;BME280;1352;48.446;9.156;2023-11-21T05:04:04;94699.81;;;10.52;90.97
2685;BME280;1352;48.446;9.156;2023-11-21T05:06:31;94699.19;;;10.58;90.87
2685;BME280;1352;48.446;9.156;2023-11-21T05:08:58;94701.88;;;10.49;91.19
2685;BME280;1352;48.446;9.156;2023-11-21T05:11:25;94705.69;;;10.54;91.52
2685;BME280;1352;48.446;9.156;2023-11-21T05:13:51;94708.53;;;10.43;92.78
2685;BME280;1352;48.446;9.156;2023-11-21T05:16:20;94698.31;;;10.50;92.21
2685;BME280;1352;48.446;9.156;2023-11-21T05:18:47;94705.72;;;10.36;92.87
2685;BME280;1352;48.446;9.156;2023-11-21T05:21:15;94708.06;;;10.48;92.42
2685;BME280;1352;48.446;9.156;2023-11-21T05:23:42;94705.25;;;10.41;93.48
2685;BME280;1352;48.446;9.156;2023-11-21T05:26:08;94714.28;;;10.47;92.83
2685;BME280;1352;48.446;9.156;2023-11-21T05:28:35;94700.44;;;10.46;91.69
2685;BME280;1352;48.446;9.156;2023-11-21T05:31:02;94709.88;;;10.47;91.59
2685;BME280;1352;48.446;9.156;2023-11-21T05:33:30;94708.81;;;10.40;91.62
2685;BME280;1352;48.446;9.156;2023-11-21T05:35:58;94709.16;;;10.37;92.24
2685;BME280;1352;48.446;9.156;2023-11-21T05:38:25;94717.31;;;10.42;92.25
2685;BME280;1352;48.446;9.156;2023-11-21T05:40:51;94719.09;;;10.41;92.07
2685;BME280;1352;48.446;9.156;2023-11-21T05:43:18;94725.22;;;10.50;92.27
2685;BME280;1352;48.446;9.156;2023-11-21T05:45:45;94730.59;;;10.31;92.82
2685;BME280;1352;48.446;9.156;2023-11-21T05:48:11;94724.25;;;10.33;94.54
2685;BME280;1352;48.446;9.156;2023-11-21T05:50:40;94728.03;;;10.39;94.74
2685;BME280;1352;48.446;9.156;2023-11-21T05:53:07;94727.06;;;10.40;94.47
2685;BME280;1352;48.446;9.156;2023-11-21T05:55:35;94728.88;;;10.39;94.79
2685;BME280;1352;48.446;9.156;2023-11-21T05:58:02;94729.63;;;10.32;95.84
2685;BME280;1352;48.446;9.156;2023-11-21T06:00:29;94734.75;;;10.41;95.93
2685;BME280;1352;48.446;9.156;2023-11-21T06:02:57;94730.75;;;10.47;96.43
2685;BME280;1352;48.446;9.156;2023-11-21T06:05:24;94729.53;;;10.41;96.35
2685;BME280;1352;48.446;9.156;2023-11-21T06:07:55;94736.91;;;10.64;95.19
2685;BME280;1352;48.446;9.156;2023-11-21T06:10:24;94741.72;;;10.76;93.86
2685;BME280;1352;48.446;9.156;2023-11-21T06:12:50;94746.38;;;10.65;95.11
2685;BME280;1352;48.446;9.156;2023-11-21T06:15:17;94740.19;;;10.48;95.58
2685;BME280;1352;48.446;9.156;2023-11-21T06:17:46;94742.88;;;10.38;97.44
2685;BME280;1352;48.446;9.156;2023-11-21T06:20:17;94743.75;;;10.29;98.42
2685;BME280;1352;48.446;9.156;2023-11-21T06:22:45;94755.41;;;10.35;99.32
2685;BME280;1352;48.446;9.156;2023-11-21T06:25:13;94754.66;;;10.25;99.44
2685;BME280;1352;48.446;9.156;2023-11-21T06:27:41;94754.94;;;10.22;99.95
2685;BME280;1352;48.446;9.156;2023-11-21T06:30:08;94754.28;;;10.37;100.00
2685;BME280;1352;48.446;9.156;2023-11-21T06:32:36;94760.75;;;10.33;99.74
2685;BME280;1352;48.446;9.156;2023-11-21T06:35:05;94768.06;;;10.48;99.06
2685;BME280;1352;48.446;9.156;2023-11-21T06:37:32;94767.47;;;10.54;98.55
2685;BME280;1352;48.446;9.156;2023-11-21T06:39:59;94766.84;;;10.95;94.18
2685;BME280;1352;48.446;9.156;2023-11-21T06:42:30;94766.47;;;10.90;94.54
2685;BME280;1352;48.446;9.156;2023-11-21T06:44:57;94772.41;;;10.74;95.00
2685;BME280;1352;48.446;9.156;2023-11-21T06:47:24;94783.56;;;10.67;95.07
2685;BME280;1352;48.446;9.156;2023-11-21T06:49:53;94786.97;;;10.50;95.38
2685;BME280;1352;48.446;9.156;2023-11-21T06:52:19;94793.03;;;10.50;94.55
2685;BME280;1352;48.446;9.156;2023-11-21T06:54:47;94795.91;;;10.29;96.71
2685;BME280;1352;48.446;9.156;2023-11-21T06:57:14;94793.00;;;10.32;97.02
2685;BME280;1352;48.446;9.156;2023-11-21T06:59:43;94798.50;;;10.29;97.97
2685;BME280;1352;48.446;9.156;2023-11-21T07:02:09;94795.84;;;10.12;99.31
2685;BME280;1352;48.446;9.156;2023-11-21T07:04:36;94808.97;;;9.92;100.00
2685;BME280;1352;48.446;9.156;2023-11-21T07:07:03;94810.91;;;9.90;100.00
2685;BME280;1352;48.446;9.156;2023-11-21T07:09:32;94804.84;;;9.99;100.00
2685;BME280;1352;48.446;9.156;2023-11-21T07:11:59;94809.56;;;9.86;100.00
2685;BME280;1352;48.446;9.156;2023-11-21T07:14:26;94809.41;;;9.88;100.00
2685;BME280;1352;48.446;9.156;2023-11-21T07:16:55;94809.50;;;9.96;100.00
2685;BME280;1352;48.446;9.156;2023-11-21T07:19:22;94808.50;;;9.79;100.00
2685;BME280;1352;48.446;9.156;2023-11-21T07:21:48;94810.28;;;9.79;100.00
2685;BME280;1352;48.446;9.156;2023-11-21T07:24:16;94809.78;;;9.65;100.00
2685;BME280;1352;48.446;9.156;2023-11-21T07:26:43;94806.91;;;9.59;100.00
2685;BME280;1352;48.446;9.156;2023-11-21T07:29:10;94807.75;;;9.59;100.00
2685;BME280;1352;48.446;9.156;2023-11-21T07:31:38;94808.78;;;9.76;100.00
2685;BME280;1352;48.446;9.156;2023-11-21T07:34:07;94805.88;;;9.79;100.00
2685;BME280;1352;48.446;9.156;2023-11-21T07:36:34;94808.97;;;9.92;100.00
2685;BME280;1352;48.446;9.156;2023-11-21T07:39:01;94816.50;;;9.95;100.00
2685;BME280;1352;48.446;9.156;2023-11-21T07:41:28;94818.94;;;10.06;100.00
2685;BME280;1352;48.446;9.156;2023-11-21T07:43:55;94821.75;;;10.13;100.00
2685;BME280;1352;48.446;9.156;2023-11-21T07:46:22;94820.66;;;10.16;100.00
2685;BME280;1352;48.446;9.156;2023-11-21T07:48:49;94822.56;;;10.23;100.00
2685;BME280;1352;48.446;9.156;2023-11-21T07:51:20;94821.06;;;10.21;100.00
2685;BME280;1352;48.446;9.156;2023-11-21T07:53:47;94820.72;;;10.06;100.00
2685;BME280;1352;48.446;9.156;2023-11-21T07:56:14;94827.09;;;9.84;100.00
2685;BME280;1352;48.446;9.156;2023-11-21T07:58:40;94836.19;;;9.80;100.00
2685;BME280;1352;48.446;9.156;2023-11-21T08:01:07;94833.03;;;9.77;100.00
2685;BME280;1352;48.446;9.156;2023-11-21T08:03:34;94840.56;;;9.80;100.00
2685;BME280;1352;48.446;9.156;2023-11-21T08:06:01;94840.00;;;9.86;100.00
2685;BME280;1352;48.446;9.156;2023-11-21T08:08:32;94848.38;;;9.80;100.00
2685;BME280;1352;48.446;9.156;2023-11-21T08:10:59;94841.88;;;9.93;100.00
2685;BME280;1352;48.446;9.156;2023-11-21T08:13:27;94841.19;;;9.91;100.00
2685;BME280;1352;48.446;9.156;2023-11-21T08:15:54;94837.91;;;9.99;100.00
2685;BME280;1352;48.446;9.156;2023-11-21T08:18:21;94834.66;;;9.87;100.00
2685;BME280;1352;48.446;9.156;2023-11-21T08:20:48;94843.38;;;9.96;100.00
2685;BME280;1352;48.446;9.156;2023-11-21T08:23:15;94844.84;;;10.08;100.00
2685;BME280;1352;48.446;9.156;2023-11-21T08:25:44;94843.56;;;10.12;100.00
2685;BME280;1352;48.446;9.156;2023-11-21T08:28:11;94845.00;;;10.06;100.00
2685;BME280;1352;48.446;9.156;2023-11-21T08:30:40;94851.84;;;10.07;100.00
2685;BME280;1352;48.446;9.156;2023-11-21T08:33:06;94860.03;;;10.13;100.00
2685;BME280;1352;48.446;9.156;2023-11-21T08:35:34;94854.81;;;10.13;100.00
2685;BME280;1352;48.446;9.156;2023-11-21T08:38:01;94859.63;;;10.17;100.00
2685;BME280;1352;48.446;9.156;2023-11-21T08:40:28;94862.03;;;10.38;100.00
2685;BME280;1352;48.446;9.156;2023-11-21T08:42:56;94863.63;;;10.39;100.00
2685;BME280;1352;48.446;9.156;2023-11-21T08:45:24;94867.75;;;10.41;100.00
2685;BME280;1352;48.446;9.156;2023-11-21T08:47:51;94869.09;;;10.46;100.00
2685;BME280;1352;48.446;9.156;2023-11-21T08:50:18;94863.97;;;10.54;100.00
2685;BME280;1352;48.446;9.156;2023-11-21T08:52:44;94862.41;;;10.61;100.00
2685;BME280;1352;48.446;9.156;2023-11-21T08:55:12;94860.25;;;10.56;100.00
2685;BME280;1352;48.446;9.156;2023-11-21T08:57:39;94865.50;;;10.74;100.00
2685;BME280;1352;48.446;9.156;2023-11-21T09:00:08;94870.31;;;10.69;100.00
2685;BME280;1352;48.446;9.156;2023-11-21T09:02:36;94871.81;;;10.71;100.00
2685;BME280;1352;48.446;9.156;2023-11-21T09:05:04;94867.22;;;10.65;100.00
2685;BME280;1352;48.446;9.156;2023-11-21T09:07:31;94878.47;;;10.66;100.00
2685;BME280;1352;48.446;9.156;2023-11-21T09:09:58;94875.41;;;10.70;100.00
2685;BME280;1352;48.446;9.156;2023-11-21T09:12:25;94875.03;;;10.65;100.00
2685;BME280;1352;48.446;9.156;2023-11-21T09:14:51;94880.84;;;10.77;100.00
2685;BME280;1352;48.446;9.156;2023-11-21T09:17:20;94880.75;;;10.69;100.00
2685;BME280;1352;48.446;9.156;2023-11-21T09:19:47;94877.50;;;10.85;100.00
2685;BME280;1352;48.446;9.156;2023-11-21T09:22:16;94884.53;;;10.84;100.00
2685;BME280;1352;48.446;9.156;2023-11-21T09:24:43;94884.13;;;10.79;100.00
2685;BME280;1352;48.446;9.156;2023-11-21T09:27:10;94888.91;;;10.84;100.00
2685;BME280;1352;48.446;9.156;2023-11-21T09:29:37;94893.75;;;10.96;100.00
2685;BME280;1352;48.446;9.156;2023-11-21T09:32:05;94889.28;;;10.89;100.00
2685;BME280;1352;48.446;9.156;2023-11-21T09:34:35;94892.63;;;10.81;100.00
2685;BME280;1352;48.446;9.156;2023-11-21T09:37:03;94888.31;;;10.90;100.00
2685;BME280;1352;48.446;9.156;2023-11-21T09:39:31;94899.78;;;10.97;100.00
2685;BME280;1352;48.446;9.156;2023-11-21T09:42:01;94900.66;;;10.70;100.00
2685;BME280;1352;48.446;9.156;2023-11-21T09:44:32;94902.31;;;10.89;100.00
2685;BME280;1352;48.446;9.156;2023-11-21T09:47:02;94901.28;;;10.81;100.00
2685;BME280;1352;48.446;9.156;2023-11-21T09:49:29;94910.38;;;10.77;100.00
2685;BME280;1352;48.446;9.156;2023-11-21T09:52:01;94907.47;;;10.80;100.00
2685;BME280;1352;48.446;9.156;2023-11-21T09:54:30;94901.84;;;11.03;100.00
2685;BME280;1352;48.446;9.156;2023-11-21T09:56:58;94909.13;;;10.81;100.00
2685;BME280;1352;48.446;9.156;2023-11-21T09:59:26;94904.50;;;10.93;100.00
2685;BME280;1352;48.446;9.156;2023-11-21T10:01:55;94902.56;;;10.95;100.00
2685;BME280;1352;48.446;9.156;2023-11-21T10:04:24;94910.78;;;11.00;100.00
2685;BME280;1352;48.446;9.156;2023-11-21T10:06:52;94910.69;;;11.10;100.00
2685;BME280;1352;48.446;9.156;2023-11-21T10:09:21;94910.78;;;11.18;100.00
2685;BME280;1352;48.446;9.156;2023-11-21T10:11:49;94911.97;;;11.06;100.00
2685;BME280;1352;48.446;9.156;2023-11-21T10:14:17;94910.63;;;11.19;100.00
2685;BME280;1352;48.446;9.156;2023-11-21T10:16:46;94914.75;;;11.22;100.00
2685;BME280;1352;48.446;9.156;2023-11-21T10:19:14;94914.34;;;11.17;100.00
2685;BME280;1352;48.446;9.156;2023-11-21T10:21:42;94910.41;;;11.13;99.44
2685;BME280;1352;48.446;9.156;2023-11-21T10:24:09;94921.38;;;11.16;100.00
2685;BME280;1352;48.446;9.156;2023-11-21T10:26:39;94909.28;;;11.15;100.00
2685;BME280;1352;48.446;9.156;2023-11-21T10:29:07;94919.28;;;11.02;100.00
2685;BME280;1352;48.446;9.156;2023-11-21T10:31:33;94918.88;;;10.97;100.00
2685;BME280;1352;48.446;9.156;2023-11-21T10:34:13;94923.16;;;11.16;100.00
2685;BME280;1352;48.446;9.156;2023-11-21T10:36:40;94923.97;;;10.99;100.00
2685;BME280;1352;48.446;9.156;2023-11-21T10:39:08;94922.78;;;10.93;100.00
2685;BME280;1352;48.446;9.156;2023-11-21T10:41:35;94925.81;;;10.89;100.00
2685;BME280;1352;48.446;9.156;2023-11-21T10:44:04;94926.41;;;10.82;100.00
2685;BME280;1352;48.446;9.156;2023-11-21T10:46:32;94934.59;;;10.88;100.00
2685;BME280;1352;48.446;9.156;2023-11-21T10:48:59;94936.41;;;10.87;100.00
2685;BME280;1352;48.446;9.156;2023-11-21T10:51:27;94930.72;;;10.74;100.00
2685;BME280;1352;48.446;9.156;2023-11-21T10:53:54;94930.28;;;10.78;100.00
2685;BME280;1352;48.446;9.156;2023-11-21T10:56:23;94926.22;;;10.94;100.00
2685;BME280;1352;48.446;9.156;2023-11-21T10:58:51;94930.75;;;10.92;100.00
2685;BME280;1352;48.446;9.156;2023-11-21T11:01:21;94940.16;;;11.02;100.00
2685;BME280;1352;48.446;9.156;2023-11-21T11:03:49;94929.31;;;10.97;100.00
2685;BME280;1352;48.446;9.156;2023-11-21T11:06:20;94931.50;;;11.02;100.00
2685;BME280;1352;48.446;9.156;2023-11-21T11:08:47;94922.03;;;11.01;100.00
2685;BME280;1352;48.446;9.156;2023-11-21T11:11:15;94929.03;;;11.00;100.00
2685;BME280;1352;48.446;9.156;2023-11-21T11:13:43;94926.97;;;11.04;100.00
2685;BME280;1352;48.446;9.156;2023-11-21T11:16:12;94927.63;;;11.06;100.00
2685;BME280;1352;48.446;9.156;2023-11-21T11:18:44;94924.25;;;10.96;100.00
2685;BME280;1352;48.446;9.156;2023-11-21T11:21:15;94926.44;;;11.00;100.00
2685;BME280;1352;48.446;9.156;2023-11-21T11:23:52;94925.25;;;11.12;100.00
2685;BME280;1352;48.446;9.156;2023-11-21T11:29:10;94916.81;;;11.01;100.00
2685;BME280;1352;48.446;9.156;2023-11-21T11:31:43;94918.38;;;10.94;100.00
2685;BME280;1352;48.446;9.156;2023-11-21T11:34:17;94918.16;;;11.23;100.00
2685;BME280;1352;48.446;9.156;2023-11-21T11:36:48;94921.81;;;11.12;100.00
2685;BME280;1352;48.446;9.156;2023-11-21T11:39:28;94920.03;;;11.12;100.00
2685;BME280;1352;48.446;9.156;2023-11-21T11:41:55;94920.09;;;11.21;100.00
2685;BME280;1352;48.446;9.156;2023-11-21T11:47:13;94927.13;;;11.02;100.00
2685;BME280;1352;48.446;9.156;2023-11-21T11:49:44;94935.03;;;11.10;100.00
2685;BME280;1352;48.446;9.156;2023-11-21T11:52:34;94934.63;;;11.05;100.00
2685;BME280;1352;48.446;9.156;2023-11-21T11:55:01;94929.31;;;10.97;100.00
2685;BME280;1352;48.446;9.156;2023-11-21T11:57:30;94934.56;;;11.15;100.00
2685;BME280;1352;48.446;9.156;2023-11-21T12:00:07;94930.28;;;10.96;100.00
2685;BME280;1352;48.446;9.156;2023-11-21T12:02:35;94934.56;;;10.97;100.00
2685;BME280;1352;48.446;9.156;2023-11-21T12:05:08;94932.34;;;11.02;100.00
2685;BME280;1352;48.446;9.156;2023-11-21T12:07:48;94930.84;;;11.17;100.00
2685;BME280;1352;48.446;9.156;2023-11-21T12:10:16;94928.84;;;11.11;100.00
2685;BME280;1352;48.446;9.156;2023-11-21T12:12:45;94934.81;;;11.22;100.00
2685;BME280;1352;48.446;9.156;2023-11-21T12:15:12;94931.38;;;11.21;100.00
2685;BME280;1352;48.446;9.156;2023-11-21T12:17:39;94938.66;;;11.35;100.00
2685;BME280;1352;48.446;9.156;2023-11-21T12:20:11;94935.31;;;11.78;100.00
2685;BME280;1352;48.446;9.156;2023-11-21T12:22:43;94936.28;;;11.60;100.00
2685;BME280;1352;48.446;9.156;2023-11-21T12:25:10;94936.34;;;11.85;100.00
2685;BME280;1352;48.446;9.156;2023-11-21T12:27:42;94930.84;;;11.97;99.71
2685;BME280;1352;48.446;9.156;2023-11-21T12:30:09;94933.41;;;11.71;100.00
2685;BME280;1352;48.446;9.156;2023-11-21T12:32:39;94933.50;;;11.61;100.00
2685;BME280;1352;48.446;9.156;2023-11-21T12:35:06;94939.09;;;11.66;100.00
2685;BME280;1352;48.446;9.156;2023-11-21T12:37:34;94944.28;;;11.76;100.00
2685;BME280;1352;48.446;9.156;2023-11-21T12:40:01;94942.00;;;11.63;100.00
2685;BME280;1352;48.446;9.156;2023-11-21T12:42:28;94948.38;;;11.78;100.00
2685;BME280;1352;48.446;9.156;2023-11-21T12:45:09;94951.88;;;11.69;100.00
2685;BME280;1352;48.446;9.156;2023-11-21T12:47:40;94951.97;;;11.77;100.00
2685;BME280;1352;48.446;9.156;2023-11-21T12:50:08;94950.84;;;12.06;99.58
2685;BME280;1352;48.446;9.156;2023-11-21T12:52:44;94951.34;;;12.09;98.68
2685;BME280;1352;48.446;9.156;2023-11-21T12:55:13;94952.03;;;11.85;100.00
2685;BME280;1352;48.446;9.156;2023-11-21T12:57:41;94952.69;;;11.70;100.00
2685;BME280;1352;48.446;9.156;2023-11-21T13:00:08;94952.47;;;11.63;100.00
2685;BME280;1352;48.446;9.156;2023-11-21T13:02:40;94950.31;;;11.59;100.00
2685;BME280;1352;48.446;9.156;2023-11-21T13:05:08;94944.41;;;11.56;100.00
2685;BME280;1352;48.446;9.156;2023-11-21T13:07:45;94941.00;;;11.38;100.00
2685;BME280;1352;48.446;9.156;2023-11-21T13:10:14;94944.56;;;11.37;100.00
2685;BME280;1352;48.446;9.156;2023-11-21T13:12:42;94946.56;;;11.43;100.00
2685;BME280;1352;48.446;9.156;2023-11-21T13:15:10;94952.03;;;11.50;100.00
2685;BME280;1352;48.446;9.156;2023-11-21T13:17:37;94950.97;;;11.43;100.00
2685;BME280;1352;48.446;9.156;2023-11-21T13:20:04;94953.16;;;11.47;100.00
2685;BME280;1352;48.446;9.156;2023-11-21T13:22:34;94955.75;;;11.47;100.00
2685;BME280;1352;48.446;9.156;2023-11-21T13:25:02;94955.97;;;11.54;100.00
2685;BME280;1352;48.446;9.156;2023-11-21T13:27:32;94955.22;;;11.62;100.00